Boonville, IN

2:29 PM CDT on May 24, 2015 (GMT -0500)
Boonville 1S | | Change Station
CLOSE
Current Station
Personal Weather Station
Location: Boonville, IN
Elevation: 400 ft
Nearby Weather Stations
Active Advisory: Lake Wind Advisory

Elev 400 ft 38.03 °N, 87.27 °W | Updated 4 seconds ago

Mostly Cloudy
Mostly Cloudy
86.5 °F
Feels Like 90 °F
N
3.0
Wind Variable Wind from SW
Gusts 7.0 mph

Today
High -- | Low -- °F
--% Chance of Precip.
Yesterday
High -- | Low -- °F
Precip. -- in
5:32 AM 8:00 PM
Waxing Crescent, 41% visible
Pressure 30.11 in
Visibility 10.0 miles
Clouds Mostly Cloudy 7000 ft
Heat Index 90 °F
Dew Point 67 °F
Humidity 53%
Rainfall 0.00 in
Snow Depth Not available.
UV 6 out of 12
Pollen 8.70 out of 12
Air Quality Not available.
Flu Activity Sporadic
METAR KEVV 241854Z 17009KT 10SM BKN070 28/17 A3012 RMK AO2 SLP196 T02780167

More Conditions Fewer Conditions

Pressure 30.11 in
Visibility 10.0 miles
Clouds Mostly Cloudy 7000 ft
Heat Index 90 °F
Dew Point 67 °F
Humidity 53%
Rainfall 0.00 in
Snow Depth Not available.
UV 6 out of 12
Pollen 8.70 out of 12
Air Quality Not available.
Flu Activity Sporadic
METAR KEVV 241854Z 17009KT 10SM BKN070 28/17 A3012 RMK AO2 SLP196 T02780167

More Conditions Fewer Conditions

10-Day Weather Forecast

Almanac

Astronomy

May. 24, 2015 Rise Set
Actual Time
Civil Twilight
Nautical Twilight
Astronomical Twilight
Moon
Length of Visible Light
Length of Day
Tomorrow will be .
, % of the Moon is Illuminated

Today's Extremes

State Highs State Lows

Community

WunderPhotos

Upload Photos

1,823,832 photos uploaded!

WunderBlogs® & News

Nearby

Air Quality

  Air Quality AQ Index Pollutant
Not available.

Snow Depth

Station Depth Elevation

Earthquake Activity

City Distance Mag. Time & Date
Minimum magnitude displayed is 2.5.

Coastal Water Temperatures

Place Temperature

Stations

Nearby Weather Stations

Station Location Temp. Windchill Dew Point Humidity Wind Precip. Elev Updated Type
                   
Lake Wind Advisory
Statement as of 9:44 AM CDT on May 24, 2015

... Lake Wind Advisory in effect until 7 PM CDT this evening...

The National Weather Service in Paducah has issued a lake Wind
Advisory... which is in effect until 7 PM CDT this evening.

* Timing... late this morning through early this evening.

* Winds... sustained from 15 to 20 mph with gusts around 25 mph.

* Impacts... impacts will be high due to the Holiday weekend
boating activity.

Precautionary/preparedness actions...

A lake Wind Advisory indicates that winds will cause rough chop
on area lakes. Small boats will be especially prone to capsizing.



York